sensor_id;sensor_type;location;lat;lon;timestamp;P1;durP1;ratioP1;P2;durP2;ratioP2
55212;SDS011;41083;52.932;6.674;2022-10-19T00:01:50;1.23;;;0.35;;
55212;SDS011;41083;52.932;6.674;2022-10-19T00:04:16;0.15;;;0.10;;
55212;SDS011;41083;52.932;6.674;2022-10-19T00:06:43;0.57;;;0.30;;
55212;SDS011;41083;52.932;6.674;2022-10-19T00:09:10;0.52;;;0.20;;
55212;SDS011;41083;52.932;6.674;2022-10-19T00:11:39;0.60;;;0.20;;
55212;SDS011;41083;52.932;6.674;2022-10-19T00:14:06;0.82;;;0.28;;
55212;SDS011;41083;52.932;6.674;2022-10-19T00:16:34;6.20;;;0.28;;
55212;SDS011;41083;52.932;6.674;2022-10-19T00:19:02;0.38;;;0.13;;
55212;SDS011;41083;52.932;6.674;2022-10-19T00:21:30;0.10;;;0.10;;
55212;SDS011;41083;52.932;6.674;2022-10-19T00:23:56;0.52;;;0.17;;
55212;SDS011;41083;52.932;6.674;2022-10-19T00:26:21;0.15;;;0.10;;
55212;SDS011;41083;52.932;6.674;2022-10-19T00:28:47;0.75;;;0.50;;
55212;SDS011;41083;52.932;6.674;2022-10-19T00:31:14;0.57;;;0.20;;
55212;SDS011;41083;52.932;6.674;2022-10-19T00:33:41;2.72;;;0.30;;
55212;SDS011;41083;52.932;6.674;2022-10-19T00:36:14;0.30;;;0.20;;
55212;SDS011;41083;52.932;6.674;2022-10-19T00:38:45;0.43;;;0.10;;
55212;SDS011;41083;52.932;6.674;2022-10-19T00:41:11;0.10;;;0.10;;
55212;SDS011;41083;52.932;6.674;2022-10-19T00:43:56;1.05;;;0.22;;
55212;SDS011;41083;52.932;6.674;2022-10-19T00:46:25;0.60;;;0.30;;
55212;SDS011;41083;52.932;6.674;2022-10-19T00:48:53;0.50;;;0.25;;
55212;SDS011;41083;52.932;6.674;2022-10-19T00:51:22;1.63;;;0.60;;
55212;SDS011;41083;52.932;6.674;2022-10-19T00:53:50;0.17;;;0.10;;
55212;SDS011;41083;52.932;6.674;2022-10-19T00:56:16;3.20;;;0.52;;
55212;SDS011;41083;52.932;6.674;2022-10-19T00:58:42;0.73;;;0.40;;
55212;SDS011;41083;52.932;6.674;2022-10-19T01:01:09;0.10;;;0.10;;
55212;SDS011;41083;52.932;6.674;2022-10-19T01:03:38;0.98;;;0.45;;
55212;SDS011;41083;52.932;6.674;2022-10-19T01:06:04;0.50;;;0.30;;
55212;SDS011;41083;52.932;6.674;2022-10-19T01:08:30;0.40;;;0.20;;
55212;SDS011;41083;52.932;6.674;2022-10-19T01:11:06;0.57;;;0.40;;
55212;SDS011;41083;52.932;6.674;2022-10-19T01:13:58;0.45;;;0.20;;
55212;SDS011;41083;52.932;6.674;2022-10-19T01:16:46;0.17;;;0.17;;
55212;SDS011;41083;52.932;6.674;2022-10-19T01:22:29;0.88;;;0.40;;
55212;SDS011;41083;52.932;6.674;2022-10-19T01:25:20;0.75;;;0.47;;
55212;SDS011;41083;52.932;6.674;2022-10-19T01:31:44;2.05;;;0.50;;
55212;SDS011;41083;52.932;6.674;2022-10-19T01:34:13;0.82;;;0.50;;
55212;SDS011;41083;52.932;6.674;2022-10-19T01:39:37;3.38;;;0.77;;
55212;SDS011;41083;52.932;6.674;2022-10-19T01:47:47;1.42;;;0.40;;
55212;SDS011;41083;52.932;6.674;2022-10-19T01:50:32;0.93;;;0.60;;
55212;SDS011;41083;52.932;6.674;2022-10-19T01:53:05;6.88;;;0.45;;
55212;SDS011;41083;52.932;6.674;2022-10-19T01:55:33;0.43;;;0.20;;
55212;SDS011;41083;52.932;6.674;2022-10-19T01:58:02;0.93;;;0.40;;
55212;SDS011;41083;52.932;6.674;2022-10-19T02:00:31;0.73;;;0.40;;
55212;SDS011;41083;52.932;6.674;2022-10-19T02:02:59;0.68;;;0.28;;
55212;SDS011;41083;52.932;6.674;2022-10-19T02:05:27;2.38;;;0.40;;
55212;SDS011;41083;52.932;6.674;2022-10-19T02:08:03;0.68;;;0.38;;
55212;SDS011;41083;52.932;6.674;2022-10-19T02:10:38;0.93;;;0.45;;
55212;SDS011;41083;52.932;6.674;2022-10-19T02:13:07;0.60;;;0.40;;
55212;SDS011;41083;52.932;6.674;2022-10-19T02:15:35;1.70;;;0.52;;
55212;SDS011;41083;52.932;6.674;2022-10-19T02:18:04;0.85;;;0.43;;
55212;SDS011;41083;52.932;6.674;2022-10-19T02:20:31;0.35;;;0.20;;
55212;SDS011;41083;52.932;6.674;2022-10-19T02:22:59;1.02;;;0.80;;
55212;SDS011;41083;52.932;6.674;2022-10-19T02:25:26;1.27;;;0.65;;
55212;SDS011;41083;52.932;6.674;2022-10-19T02:27:52;7.03;;;0.60;;
55212;SDS011;41083;52.932;6.674;2022-10-19T02:30:18;2.22;;;0.40;;
55212;SDS011;41083;52.932;6.674;2022-10-19T02:32:45;4.50;;;0.47;;
55212;SDS011;41083;52.932;6.674;2022-10-19T02:35:11;1.42;;;0.50;;
55212;SDS011;41083;52.932;6.674;2022-10-19T02:37:38;0.75;;;0.52;;
55212;SDS011;41083;52.932;6.674;2022-10-19T02:40:05;1.67;;;0.52;;
55212;SDS011;41083;52.932;6.674;2022-10-19T02:42:33;3.60;;;1.00;;
55212;SDS011;41083;52.932;6.674;2022-10-19T02:45:16;0.47;;;0.28;;
55212;SDS011;41083;52.932;6.674;2022-10-19T02:47:48;3.20;;;0.35;;
55212;SDS011;41083;52.932;6.674;2022-10-19T02:50:19;1.85;;;0.60;;
55212;SDS011;41083;52.932;6.674;2022-10-19T02:52:46;2.40;;;0.45;;
55212;SDS011;41083;52.932;6.674;2022-10-19T02:55:12;1.13;;;0.50;;
55212;SDS011;41083;52.932;6.674;2022-10-19T02:57:37;1.45;;;0.57;;
55212;SDS011;41083;52.932;6.674;2022-10-19T03:00:04;0.68;;;0.43;;
55212;SDS011;41083;52.932;6.674;2022-10-19T03:02:31;0.65;;;0.30;;
55212;SDS011;41083;52.932;6.674;2022-10-19T03:04:56;3.08;;;0.65;;
55212;SDS011;41083;52.932;6.674;2022-10-19T03:07:22;1.48;;;0.50;;
55212;SDS011;41083;52.932;6.674;2022-10-19T03:09:48;1.50;;;0.60;;
55212;SDS011;41083;52.932;6.674;2022-10-19T03:12:14;0.75;;;0.50;;
55212;SDS011;41083;52.932;6.674;2022-10-19T03:14:40;2.60;;;0.75;;
55212;SDS011;41083;52.932;6.674;2022-10-19T03:17:06;3.90;;;0.50;;
55212;SDS011;41083;52.932;6.674;2022-10-19T03:19:33;2.67;;;0.50;;
55212;SDS011;41083;52.932;6.674;2022-10-19T03:21:59;0.85;;;0.43;;
55212;SDS011;41083;52.932;6.674;2022-10-19T03:24:25;1.20;;;0.68;;
55212;SDS011;41083;52.932;6.674;2022-10-19T03:26:51;1.65;;;0.60;;
55212;SDS011;41083;52.932;6.674;2022-10-19T03:29:16;2.42;;;0.65;;
55212;SDS011;41083;52.932;6.674;2022-10-19T03:31:42;0.85;;;0.47;;
55212;SDS011;41083;52.932;6.674;2022-10-19T03:34:08;0.40;;;0.30;;
55212;SDS011;41083;52.932;6.674;2022-10-19T03:36:34;5.28;;;0.68;;
55212;SDS011;41083;52.932;6.674;2022-10-19T03:39:03;0.50;;;0.32;;
55212;SDS011;41083;52.932;6.674;2022-10-19T03:41:32;3.78;;;0.47;;
55212;SDS011;41083;52.932;6.674;2022-10-19T03:43:58;3.08;;;0.55;;
55212;SDS011;41083;52.932;6.674;2022-10-19T03:46:24;1.17;;;0.50;;
55212;SDS011;41083;52.932;6.674;2022-10-19T03:48:51;0.82;;;0.40;;
55212;SDS011;41083;52.932;6.674;2022-10-19T03:51:18;0.82;;;0.60;;
55212;SDS011;41083;52.932;6.674;2022-10-19T03:53:45;2.80;;;0.38;;
55212;SDS011;41083;52.932;6.674;2022-10-19T03:56:13;0.50;;;0.40;;
55212;SDS011;41083;52.932;6.674;2022-10-19T03:58:43;4.38;;;0.60;;
55212;SDS011;41083;52.932;6.674;2022-10-19T04:01:12;0.82;;;0.30;;
55212;SDS011;41083;52.932;6.674;2022-10-19T04:03:43;0.95;;;0.70;;
55212;SDS011;41083;52.932;6.674;2022-10-19T04:06:12;0.68;;;0.38;;
55212;SDS011;41083;52.932;6.674;2022-10-19T04:08:40;0.68;;;0.30;;
55212;SDS011;41083;52.932;6.674;2022-10-19T04:11:08;3.33;;;0.52;;
55212;SDS011;41083;52.932;6.674;2022-10-19T04:13:36;1.27;;;0.65;;
55212;SDS011;41083;52.932;6.674;2022-10-19T04:16:02;0.77;;;0.45;;
55212;SDS011;41083;52.932;6.674;2022-10-19T04:18:28;0.77;;;0.43;;
55212;SDS011;41083;52.932;6.674;2022-10-19T04:21:03;3.50;;;0.50;;
55212;SDS011;41083;52.932;6.674;2022-10-19T04:23:30;1.70;;;0.52;;
55212;SDS011;41083;52.932;6.674;2022-10-19T04:25:58;2.03;;;0.40;;
55212;SDS011;41083;52.932;6.674;2022-10-19T04:28:31;0.55;;;0.22;;
55212;SDS011;41083;52.932;6.674;2022-10-19T04:31:00;1.55;;;0.50;;
55212;SDS011;41083;52.932;6.674;2022-10-19T04:33:26;0.65;;;0.22;;
55212;SDS011;41083;52.932;6.674;2022-10-19T04:35:59;1.77;;;0.52;;
55212;SDS011;41083;52.932;6.674;2022-10-19T04:38:25;0.77;;;0.32;;
55212;SDS011;41083;52.932;6.674;2022-10-19T04:40:52;2.15;;;0.60;;
55212;SDS011;41083;52.932;6.674;2022-10-19T04:43:18;3.03;;;0.52;;
55212;SDS011;41083;52.932;6.674;2022-10-19T04:45:44;0.43;;;0.20;;
55212;SDS011;41083;52.932;6.674;2022-10-19T04:48:09;1.10;;;0.47;;
55212;SDS011;41083;52.932;6.674;2022-10-19T04:50:35;2.28;;;0.30;;
55212;SDS011;41083;52.932;6.674;2022-10-19T04:53:01;0.10;;;0.10;;
55212;SDS011;41083;52.932;6.674;2022-10-19T04:55:27;0.45;;;0.30;;
55212;SDS011;41083;52.932;6.674;2022-10-19T04:57:52;0.77;;;0.28;;
55212;SDS011;41083;52.932;6.674;2022-10-19T05:00:18;0.63;;;0.30;;
55212;SDS011;41083;52.932;6.674;2022-10-19T05:02:44;0.80;;;0.30;;
55212;SDS011;41083;52.932;6.674;2022-10-19T05:05:11;1.05;;;0.30;;
55212;SDS011;41083;52.932;6.674;2022-10-19T05:07:37;0.52;;;0.20;;
55212;SDS011;41083;52.932;6.674;2022-10-19T05:10:03;0.47;;;0.30;;
55212;SDS011;41083;52.932;6.674;2022-10-19T05:12:28;1.20;;;0.32;;
55212;SDS011;41083;52.932;6.674;2022-10-19T05:14:54;0.70;;;0.43;;
55212;SDS011;41083;52.932;6.674;2022-10-19T05:17:20;1.33;;;0.80;;
55212;SDS011;41083;52.932;6.674;2022-10-19T05:19:45;1.05;;;0.30;;
55212;SDS011;41083;52.932;6.674;2022-10-19T05:22:11;1.10;;;0.20;;
55212;SDS011;41083;52.932;6.674;2022-10-19T05:24:36;0.85;;;0.40;;
55212;SDS011;41083;52.932;6.674;2022-10-19T05:27:02;0.20;;;0.17;;
55212;SDS011;41083;52.932;6.674;2022-10-19T05:29:28;0.75;;;0.35;;
55212;SDS011;41083;52.932;6.674;2022-10-19T05:31:54;0.88;;;0.30;;
55212;SDS011;41083;52.932;6.674;2022-10-19T05:34:19;1.02;;;0.35;;
55212;SDS011;41083;52.932;6.674;2022-10-19T05:36:45;0.63;;;0.20;;
55212;SDS011;41083;52.932;6.674;2022-10-19T05:39:12;0.98;;;0.40;;
55212;SDS011;41083;52.932;6.674;2022-10-19T05:41:41;1.98;;;0.47;;
55212;SDS011;41083;52.932;6.674;2022-10-19T05:44:09;1.95;;;0.30;;
55212;SDS011;41083;52.932;6.674;2022-10-19T05:46:39;1.88;;;0.43;;
55212;SDS011;41083;52.932;6.674;2022-10-19T05:49:04;2.15;;;0.25;;
55212;SDS011;41083;52.932;6.674;2022-10-19T05:51:30;3.20;;;0.63;;
55212;SDS011;41083;52.932;6.674;2022-10-19T05:53:55;5.50;;;0.60;;
55212;SDS011;41083;52.932;6.674;2022-10-19T05:56:23;0.95;;;0.30;;
55212;SDS011;41083;52.932;6.674;2022-10-19T05:58:50;1.60;;;0.30;;
55212;SDS011;41083;52.932;6.674;2022-10-19T06:01:16;0.30;;;0.10;;
55212;SDS011;41083;52.932;6.674;2022-10-19T06:03:43;0.43;;;0.43;;
55212;SDS011;41083;52.932;6.674;2022-10-19T06:06:10;2.35;;;0.50;;
55212;SDS011;41083;52.932;6.674;2022-10-19T06:08:36;0.25;;;0.20;;
55212;SDS011;41083;52.932;6.674;2022-10-19T06:11:10;1.65;;;0.47;;
55212;SDS011;41083;52.932;6.674;2022-10-19T06:13:52;0.20;;;0.20;;
55212;SDS011;41083;52.932;6.674;2022-10-19T06:16:19;0.45;;;0.25;;
55212;SDS011;41083;52.932;6.674;2022-10-19T06:18:46;0.75;;;0.50;;
55212;SDS011;41083;52.932;6.674;2022-10-19T06:21:13;1.65;;;0.40;;
55212;SDS011;41083;52.932;6.674;2022-10-19T06:23:40;0.98;;;0.30;;
55212;SDS011;41083;52.932;6.674;2022-10-19T06:26:07;5.78;;;0.30;;
55212;SDS011;41083;52.932;6.674;2022-10-19T06:28:35;2.60;;;0.38;;
55212;SDS011;41083;52.932;6.674;2022-10-19T06:31:01;1.15;;;0.30;;
55212;SDS011;41083;52.932;6.674;2022-10-19T06:33:27;0.65;;;0.47;;
55212;SDS011;41083;52.932;6.674;2022-10-19T06:35:54;0.57;;;0.17;;
55212;SDS011;41083;52.932;6.674;2022-10-19T06:38:20;0.35;;;0.20;;
55212;SDS011;41083;52.932;6.674;2022-10-19T06:40:45;1.63;;;0.35;;
55212;SDS011;41083;52.932;6.674;2022-10-19T06:43:13;1.30;;;0.30;;
55212;SDS011;41083;52.932;6.674;2022-10-19T06:45:39;5.00;;;0.60;;
55212;SDS011;41083;52.932;6.674;2022-10-19T06:48:05;1.20;;;0.38;;
55212;SDS011;41083;52.932;6.674;2022-10-19T06:50:31;0.10;;;0.10;;
55212;SDS011;41083;52.932;6.674;2022-10-19T06:52:57;1.05;;;0.40;;
55212;SDS011;41083;52.932;6.674;2022-10-19T06:55:23;2.30;;;0.52;;
55212;SDS011;41083;52.932;6.674;2022-10-19T06:57:49;1.13;;;0.30;;
55212;SDS011;41083;52.932;6.674;2022-10-19T07:00:15;0.77;;;0.28;;
55212;SDS011;41083;52.932;6.674;2022-10-19T07:02:41;1.52;;;0.60;;
55212;SDS011;41083;52.932;6.674;2022-10-19T07:05:07;2.03;;;0.40;;
55212;SDS011;41083;52.932;6.674;2022-10-19T07:07:33;0.57;;;0.17;;
55212;SDS011;41083;52.932;6.674;2022-10-19T07:09:58;0.10;;;0.10;;
55212;SDS011;41083;52.932;6.674;2022-10-19T07:12:24;2.17;;;0.50;;
55212;SDS011;41083;52.932;6.674;2022-10-19T07:14:50;1.25;;;0.30;;
55212;SDS011;41083;52.932;6.674;2022-10-19T07:17:16;0.38;;;0.20;;
55212;SDS011;41083;52.932;6.674;2022-10-19T07:19:41;1.65;;;0.30;;
55212;SDS011;41083;52.932;6.674;2022-10-19T07:22:07;0.43;;;0.30;;
55212;SDS011;41083;52.932;6.674;2022-10-19T07:24:33;1.75;;;0.20;;
55212;SDS011;41083;52.932;6.674;2022-10-19T07:26:58;0.73;;;0.20;;
55212;SDS011;41083;52.932;6.674;2022-10-19T07:29:24;2.20;;;0.30;;
55212;SDS011;41083;52.932;6.674;2022-10-19T07:31:49;4.82;;;0.47;;
55212;SDS011;41083;52.932;6.674;2022-10-19T07:34:15;2.67;;;0.45;;
55212;SDS011;41083;52.932;6.674;2022-10-19T07:36:42;3.55;;;0.52;;
55212;SDS011;41083;52.932;6.674;2022-10-19T07:39:10;1.85;;;0.20;;
55212;SDS011;41083;52.932;6.674;2022-10-19T07:41:36;3.05;;;0.45;;
55212;SDS011;41083;52.932;6.674;2022-10-19T07:44:03;1.27;;;0.32;;
55212;SDS011;41083;52.932;6.674;2022-10-19T07:46:30;0.75;;;0.32;;
55212;SDS011;41083;52.932;6.674;2022-10-19T07:49:02;3.28;;;0.40;;
55212;SDS011;41083;52.932;6.674;2022-10-19T07:51:30;1.08;;;0.28;;
55212;SDS011;41083;52.932;6.674;2022-10-19T07:53:58;0.90;;;0.17;;
55212;SDS011;41083;52.932;6.674;2022-10-19T07:56:25;2.30;;;0.90;;
55212;SDS011;41083;52.932;6.674;2022-10-19T07:58:52;1.40;;;0.57;;
55212;SDS011;41083;52.932;6.674;2022-10-19T08:01:20;3.30;;;0.65;;
55212;SDS011;41083;52.932;6.674;2022-10-19T08:03:48;0.52;;;0.17;;
55212;SDS011;41083;52.932;6.674;2022-10-19T08:06:16;0.20;;;0.10;;
55212;SDS011;41083;52.932;6.674;2022-10-19T08:08:46;0.38;;;0.10;;
55212;SDS011;41083;52.932;6.674;2022-10-19T08:13:46;2.88;;;0.70;;
55212;SDS011;41083;52.932;6.674;2022-10-19T08:16:22;1.00;;;0.30;;
55212;SDS011;41083;52.932;6.674;2022-10-19T08:18:50;11.57;;;1.02;;
55212;SDS011;41083;52.932;6.674;2022-10-19T08:21:17;2.47;;;0.30;;
55212;SDS011;41083;52.932;6.674;2022-10-19T08:23:43;0.50;;;0.35;;
55212;SDS011;41083;52.932;6.674;2022-10-19T08:26:08;1.58;;;0.35;;
55212;SDS011;41083;52.932;6.674;2022-10-19T08:28:34;4.03;;;0.38;;
55212;SDS011;41083;52.932;6.674;2022-10-19T08:31:08;3.75;;;0.30;;
55212;SDS011;41083;52.932;6.674;2022-10-19T08:33:44;0.13;;;0.10;;
55212;SDS011;41083;52.932;6.674;2022-10-19T08:36:11;4.35;;;0.30;;
55212;SDS011;41083;52.932;6.674;2022-10-19T08:38:38;1.85;;;0.35;;
55212;SDS011;41083;52.932;6.674;2022-10-19T08:49:27;2.13;;;0.45;;
55212;SDS011;41083;52.932;6.674;2022-10-19T08:52:00;2.53;;;0.35;;
55212;SDS011;41083;52.932;6.674;2022-10-19T08:57:47;4.68;;;0.68;;
55212;SDS011;41083;52.932;6.674;2022-10-19T09:00:34;1.17;;;0.30;;
55212;SDS011;41083;52.932;6.674;2022-10-19T09:08:51;7.13;;;0.50;;
55212;SDS011;41083;52.932;6.674;2022-10-19T09:11:29;1.95;;;0.32;;
55212;SDS011;41083;52.932;6.674;2022-10-19T09:14:02;3.53;;;0.52;;
55212;SDS011;41083;52.932;6.674;2022-10-19T09:16:42;0.22;;;0.17;;
55212;SDS011;41083;52.932;6.674;2022-10-19T09:19:12;1.38;;;0.25;;
55212;SDS011;41083;52.932;6.674;2022-10-19T09:21:47;2.40;;;0.38;;
55212;SDS011;41083;52.932;6.674;2022-10-19T09:24:26;0.82;;;0.30;;
55212;SDS011;41083;52.932;6.674;2022-10-19T09:26:54;1.35;;;0.50;;
55212;SDS011;41083;52.932;6.674;2022-10-19T09:29:31;0.73;;;0.50;;
55212;SDS011;41083;52.932;6.674;2022-10-19T09:32:03;3.60;;;0.60;;
55212;SDS011;41083;52.932;6.674;2022-10-19T09:34:54;2.55;;;0.40;;
55212;SDS011;41083;52.932;6.674;2022-10-19T09:37:25;1.83;;;0.70;;
55212;SDS011;41083;52.932;6.674;2022-10-19T09:39:51;4.43;;;0.50;;
55212;SDS011;41083;52.932;6.674;2022-10-19T09:44:54;0.47;;;0.30;;
55212;SDS011;41083;52.932;6.674;2022-10-19T09:47:28;5.78;;;0.45;;
55212;SDS011;41083;52.932;6.674;2022-10-19T09:52:47;1.08;;;0.30;;
55212;SDS011;41083;52.932;6.674;2022-10-19T09:57:57;0.63;;;0.32;;
55212;SDS011;41083;52.932;6.674;2022-10-19T10:00:31;1.87;;;0.40;;
55212;SDS011;41083;52.932;6.674;2022-10-19T10:02:58;1.08;;;0.22;;
55212;SDS011;41083;52.932;6.674;2022-10-19T10:05:35;3.67;;;0.50;;
55212;SDS011;41083;52.932;6.674;2022-10-19T10:08:12;0.60;;;0.30;;
55212;SDS011;41083;52.932;6.674;2022-10-19T10:10:45;1.85;;;0.45;;
55212;SDS011;41083;52.932;6.674;2022-10-19T10:13:22;3.05;;;0.47;;
55212;SDS011;41083;52.932;6.674;2022-10-19T10:15:59;1.10;;;0.20;;
55212;SDS011;41083;52.932;6.674;2022-10-19T10:18:27;2.22;;;0.30;;
55212;SDS011;41083;52.932;6.674;2022-10-19T10:21:01;1.13;;;0.30;;
55212;SDS011;41083;52.932;6.674;2022-10-19T10:23:31;0.65;;;0.20;;
55212;SDS011;41083;52.932;6.674;2022-10-19T10:26:00;1.65;;;0.20;;
55212;SDS011;41083;52.932;6.674;2022-10-19T10:28:27;10.23;;;0.57;;
55212;SDS011;41083;52.932;6.674;2022-10-19T10:33:28;3.40;;;0.60;;
55212;SDS011;41083;52.932;6.674;2022-10-19T10:36:00;3.40;;;0.50;;
55212;SDS011;41083;52.932;6.674;2022-10-19T10:38:33;1.95;;;0.30;;
55212;SDS011;41083;52.932;6.674;2022-10-19T10:41:03;3.05;;;0.65;;
55212;SDS011;41083;52.932;6.674;2022-10-19T10:46:34;0.10;;;0.00;;
55212;SDS011;41083;52.932;6.674;2022-10-19T10:49:04;4.38;;;0.30;;
55212;SDS011;41083;52.932;6.674;2022-10-19T10:54:07;2.65;;;0.52;;
55212;SDS011;41083;52.932;6.674;2022-10-19T10:56:42;0.60;;;0.30;;
55212;SDS011;41083;52.932;6.674;2022-10-19T10:59:21;0.45;;;0.30;;
55212;SDS011;41083;52.932;6.674;2022-10-19T11:01:57;1.65;;;0.40;;
55212;SDS011;41083;52.932;6.674;2022-10-19T11:04:40;2.22;;;0.40;;
55212;SDS011;41083;52.932;6.674;2022-10-19T11:07:17;1.30;;;0.30;;
55212;SDS011;41083;52.932;6.674;2022-10-19T11:09:47;1.15;;;0.20;;
55212;SDS011;41083;52.932;6.674;2022-10-19T11:12:18;3.83;;;0.55;;
55212;SDS011;41083;52.932;6.674;2022-10-19T11:14:53;2.65;;;0.60;;
55212;SDS011;41083;52.932;6.674;2022-10-19T11:17:26;3.30;;;0.80;;
55212;SDS011;41083;52.932;6.674;2022-10-19T11:19:54;1.48;;;0.82;;
55212;SDS011;41083;52.932;6.674;2022-10-19T11:27:45;1.05;;;0.60;;
55212;SDS011;41083;52.932;6.674;2022-10-19T11:30:26;1.00;;;0.50;;
55212;SDS011;41083;52.932;6.674;2022-10-19T11:33:02;1.33;;;0.40;;
55212;SDS011;41083;52.932;6.674;2022-10-19T11:48:44;0.90;;;0.47;;
55212;SDS011;41083;52.932;6.674;2022-10-19T11:51:45;0.75;;;0.20;;
55212;SDS011;41083;52.932;6.674;2022-10-19T11:54:32;5.00;;;0.45;;
55212;SDS011;41083;52.932;6.674;2022-10-19T11:57:22;0.70;;;0.30;;
55212;SDS011;41083;52.932;6.674;2022-10-19T12:03:00;2.95;;;0.35;;
55212;SDS011;41083;52.932;6.674;2022-10-19T12:08:56;0.77;;;0.20;;
55212;SDS011;41083;52.932;6.674;2022-10-19T12:14:29;0.30;;;0.20;;
55212;SDS011;41083;52.932;6.674;2022-10-19T12:16:59;0.22;;;0.10;;
55212;SDS011;41083;52.932;6.674;2022-10-19T12:19:33;5.05;;;0.43;;
55212;SDS011;41083;52.932;6.674;2022-10-19T12:22:04;0.90;;;0.38;;
55212;SDS011;41083;52.932;6.674;2022-10-19T12:24:35;1.88;;;0.30;;
55212;SDS011;41083;52.932;6.674;2022-10-19T12:27:00;0.52;;;0.20;;
55212;SDS011;41083;52.932;6.674;2022-10-19T12:29:27;1.05;;;0.22;;
55212;SDS011;41083;52.932;6.674;2022-10-19T12:31:57;1.00;;;0.40;;
55212;SDS011;41083;52.932;6.674;2022-10-19T12:34:35;1.75;;;0.28;;
55212;SDS011;41083;52.932;6.674;2022-10-19T12:37:23;4.47;;;0.40;;
55212;SDS011;41083;52.932;6.674;2022-10-19T12:39:56;0.43;;;0.10;;
55212;SDS011;41083;52.932;6.674;2022-10-19T12:42:45;2.38;;;0.28;;
55212;SDS011;41083;52.932;6.674;2022-10-19T12:45:22;3.35;;;0.20;;
55212;SDS011;41083;52.932;6.674;2022-10-19T13:01:19;0.60;;;0.25;;
55212;SDS011;41083;52.932;6.674;2022-10-19T13:04:14;0.32;;;0.28;;
55212;SDS011;41083;52.932;6.674;2022-10-19T13:06:59;2.10;;;0.50;;
55212;SDS011;41083;52.932;6.674;2022-10-19T13:09:31;1.23;;;0.50;;
55212;SDS011;41083;52.932;6.674;2022-10-19T13:22:40;0.70;;;0.50;;
55212;SDS011;41083;52.932;6.674;2022-10-19T13:27:40;1.30;;;0.80;;
55212;SDS011;41083;52.932;6.674;2022-10-19T14:11:26;2.88;;;1.48;;
55212;SDS011;41083;52.932;6.674;2022-10-19T14:14:06;6.63;;;1.58;;
55212;SDS011;41083;52.932;6.674;2022-10-19T14:16:43;3.75;;;1.90;;
55212;SDS011;41083;52.932;6.674;2022-10-19T14:19:18;3.47;;;1.65;;
55212;SDS011;41083;52.932;6.674;2022-10-19T14:22:18;6.13;;;2.00;;
55212;SDS011;41083;52.932;6.674;2022-10-19T14:24:48;6.72;;;1.60;;
55212;SDS011;41083;52.932;6.674;2022-10-19T14:27:18;3.53;;;1.60;;
55212;SDS011;41083;52.932;6.674;2022-10-19T14:29:49;2.63;;;1.13;;
55212;SDS011;41083;52.932;6.674;2022-10-19T14:32:16;3.40;;;1.10;;
55212;SDS011;41083;52.932;6.674;2022-10-19T14:34:46;2.45;;;1.60;;
55212;SDS011;41083;52.932;6.674;2022-10-19T14:37:15;4.30;;;1.13;;
55212;SDS011;41083;52.932;6.674;2022-10-19T14:39:45;2.40;;;1.58;;
55212;SDS011;41083;52.932;6.674;2022-10-19T14:42:40;2.20;;;1.20;;
55212;SDS011;41083;52.932;6.674;2022-10-19T14:45:09;2.53;;;1.50;;
55212;SDS011;41083;52.932;6.674;2022-10-19T14:47:49;4.72;;;2.03;;
55212;SDS011;41083;52.932;6.674;2022-10-19T14:50:17;4.40;;;1.98;;
55212;SDS011;41083;52.932;6.674;2022-10-19T14:52:45;3.05;;;1.80;;
55212;SDS011;41083;52.932;6.674;2022-10-19T14:55:16;2.88;;;1.77;;
55212;SDS011;41083;52.932;6.674;2022-10-19T14:57:44;2.97;;;1.50;;
55212;SDS011;41083;52.932;6.674;2022-10-19T15:00:17;2.80;;;1.60;;
55212;SDS011;41083;52.932;6.674;2022-10-19T15:02:56;5.03;;;2.13;;
55212;SDS011;41083;52.932;6.674;2022-10-19T15:05:32;6.22;;;2.28;;
55212;SDS011;41083;52.932;6.674;2022-10-19T15:08:16;6.45;;;2.70;;
55212;SDS011;41083;52.932;6.674;2022-10-19T15:10:58;2.47;;;1.70;;
55212;SDS011;41083;52.932;6.674;2022-10-19T15:13:25;4.95;;;2.00;;
55212;SDS011;41083;52.932;6.674;2022-10-19T15:15:57;4.57;;;1.67;;
55212;SDS011;41083;52.932;6.674;2022-10-19T15:18:23;4.50;;;1.67;;
55212;SDS011;41083;52.932;6.674;2022-10-19T15:23:46;6.18;;;2.50;;
55212;SDS011;41083;52.932;6.674;2022-10-19T15:28:41;3.70;;;1.85;;
55212;SDS011;41083;52.932;6.674;2022-10-19T15:31:22;3.33;;;1.10;;
55212;SDS011;41083;52.932;6.674;2022-10-19T15:33:50;3.50;;;1.45;;
55212;SDS011;41083;52.932;6.674;2022-10-19T15:36:18;3.33;;;1.08;;
55212;SDS011;41083;52.932;6.674;2022-10-19T15:38:45;1.98;;;0.93;;
55212;SDS011;41083;52.932;6.674;2022-10-19T15:41:26;2.33;;;0.95;;
55212;SDS011;41083;52.932;6.674;2022-10-19T15:43:57;1.55;;;0.90;;
55212;SDS011;41083;52.932;6.674;2022-10-19T15:46:26;2.47;;;1.25;;
55212;SDS011;41083;52.932;6.674;2022-10-19T15:48:55;2.80;;;1.17;;
55212;SDS011;41083;52.932;6.674;2022-10-19T15:56:22;4.55;;;2.25;;
55212;SDS011;41083;52.932;6.674;2022-10-19T15:58:49;3.92;;;2.33;;
55212;SDS011;41083;52.932;6.674;2022-10-19T16:01:16;2.47;;;1.10;;
55212;SDS011;41083;52.932;6.674;2022-10-19T16:03:46;2.15;;;1.17;;
55212;SDS011;41083;52.932;6.674;2022-10-19T16:06:13;6.57;;;2.55;;
55212;SDS011;41083;52.932;6.674;2022-10-19T16:08:40;9.15;;;4.10;;
55212;SDS011;41083;52.932;6.674;2022-10-19T16:11:11;3.90;;;1.77;;
55212;SDS011;41083;52.932;6.674;2022-10-19T16:13:37;3.85;;;0.90;;
55212;SDS011;41083;52.932;6.674;2022-10-19T16:16:03;2.35;;;0.73;;
55212;SDS011;41083;52.932;6.674;2022-10-19T16:18:31;3.97;;;1.05;;
55212;SDS011;41083;52.932;6.674;2022-10-19T16:20:57;0.93;;;0.50;;
55212;SDS011;41083;52.932;6.674;2022-10-19T16:23:23;1.02;;;0.50;;
55212;SDS011;41083;52.932;6.674;2022-10-19T16:25:49;3.92;;;0.93;;
55212;SDS011;41083;52.932;6.674;2022-10-19T16:28:15;2.22;;;0.60;;
55212;SDS011;41083;52.932;6.674;2022-10-19T16:30:41;3.08;;;0.80;;
55212;SDS011;41083;52.932;6.674;2022-10-19T16:33:06;1.88;;;0.80;;
55212;SDS011;41083;52.932;6.674;2022-10-19T16:35:32;3.70;;;2.15;;
55212;SDS011;41083;52.932;6.674;2022-10-19T16:37:58;6.32;;;3.90;;
55212;SDS011;41083;52.932;6.674;2022-10-19T16:40:23;2.70;;;0.80;;
55212;SDS011;41083;52.932;6.674;2022-10-19T16:42:49;2.05;;;0.80;;
55212;SDS011;41083;52.932;6.674;2022-10-19T16:45:15;3.67;;;1.15;;
55212;SDS011;41083;52.932;6.674;2022-10-19T16:47:41;7.95;;;0.80;;
55212;SDS011;41083;52.932;6.674;2022-10-19T16:50:07;3.67;;;0.90;;
55212;SDS011;41083;52.932;6.674;2022-10-19T16:52:33;1.13;;;0.52;;
55212;SDS011;41083;52.932;6.674;2022-10-19T16:54:59;1.23;;;0.57;;
55212;SDS011;41083;52.932;6.674;2022-10-19T16:57:25;1.48;;;0.80;;
55212;SDS011;41083;52.932;6.674;2022-10-19T16:59:51;1.10;;;1.00;;
55212;SDS011;41083;52.932;6.674;2022-10-19T17:02:17;1.08;;;0.60;;
55212;SDS011;41083;52.932;6.674;2022-10-19T17:04:44;2.72;;;1.88;;
55212;SDS011;41083;52.932;6.674;2022-10-19T17:07:09;1.48;;;0.70;;
55212;SDS011;41083;52.932;6.674;2022-10-19T17:09:37;1.35;;;0.70;;
55212;SDS011;41083;52.932;6.674;2022-10-19T17:12:03;3.85;;;1.58;;
55212;SDS011;41083;52.932;6.674;2022-10-19T17:14:29;9.30;;;1.80;;
55212;SDS011;41083;52.932;6.674;2022-10-19T17:16:55;2.50;;;0.80;;
55212;SDS011;41083;52.932;6.674;2022-10-19T17:19:20;3.42;;;1.10;;
55212;SDS011;41083;52.932;6.674;2022-10-19T17:21:47;1.90;;;0.88;;
55212;SDS011;41083;52.932;6.674;2022-10-19T17:24:14;1.30;;;0.60;;
55212;SDS011;41083;52.932;6.674;2022-10-19T17:26:41;4.15;;;0.90;;
55212;SDS011;41083;52.932;6.674;2022-10-19T17:29:09;2.72;;;0.77;;
55212;SDS011;41083;52.932;6.674;2022-10-19T17:31:35;3.13;;;0.82;;
55212;SDS011;41083;52.932;6.674;2022-10-19T17:34:02;3.40;;;1.35;;
55212;SDS011;41083;52.932;6.674;2022-10-19T17:36:29;1.85;;;0.90;;
55212;SDS011;41083;52.932;6.674;2022-10-19T17:38:58;1.48;;;0.90;;
55212;SDS011;41083;52.932;6.674;2022-10-19T17:41:29;3.05;;;1.42;;